createdAt,value
2019-06-08T00:00:07.324Z,0.00
2019-06-08T00:01:07.334Z,0.00
2019-06-08T00:02:07.330Z,0.00
2019-06-08T00:03:07.279Z,0.00
2019-06-08T00:04:07.268Z,0.00
2019-06-08T00:05:07.257Z,0.00
2019-06-08T00:06:07.247Z,0.00
2019-06-08T00:07:07.280Z,0.00
2019-06-08T00:08:07.223Z,0.00
2019-06-08T00:09:07.214Z,0.00
2019-06-08T00:10:07.202Z,0.00
2019-06-08T00:11:07.190Z,0.00
2019-06-08T00:12:07.238Z,0.00
2019-06-08T00:13:07.200Z,0.00
2019-06-08T00:14:07.159Z,0.00
2019-06-08T00:15:07.153Z,0.00
2019-06-08T00:16:07.138Z,0.00
2019-06-08T00:17:07.138Z,0.00
2019-06-08T00:18:07.117Z,0.00
2019-06-08T00:19:07.122Z,0.00
2019-06-08T00:20:07.131Z,0.00
2019-06-08T00:21:07.088Z,0.00
2019-06-08T00:22:07.085Z,0.00
2019-06-08T00:23:07.066Z,0.00
2019-06-08T00:24:07.054Z,0.00
2019-06-08T00:25:07.042Z,0.00
2019-06-08T00:26:07.062Z,0.00
2019-06-08T00:27:07.039Z,0.00
2019-06-08T00:28:07.015Z,0.00
2019-06-08T00:29:07.001Z,0.00
2019-06-08T00:30:06.991Z,0.00
2019-06-08T00:31:06.978Z,0.00
2019-06-08T00:32:07.000Z,0.00
2019-06-08T00:33:06.957Z,0.00
2019-06-08T00:34:06.950Z,0.00
2019-06-08T00:35:06.942Z,0.00
2019-06-08T00:36:06.928Z,0.00
2019-06-08T00:37:06.926Z,0.00
2019-06-08T00:38:06.937Z,0.00
2019-06-08T00:39:06.955Z,0.00
2019-06-08T00:40:06.884Z,0.00
2019-06-08T00:41:06.872Z,0.00
2019-06-08T00:42:06.906Z,0.00
2019-06-08T00:43:06.851Z,0.00
2019-06-08T00:44:06.840Z,0.00
2019-06-08T00:45:06.866Z,0.00
2019-06-08T00:46:06.820Z,0.00
2019-06-08T00:47:06.825Z,0.00
2019-06-08T00:48:06.799Z,0.00
2019-06-08T00:49:06.787Z,0.00
2019-06-08T00:50:06.800Z,0.00
2019-06-08T00:51:06.775Z,0.00
2019-06-08T00:52:06.758Z,0.00
2019-06-08T00:53:06.764Z,0.00
2019-06-08T00:54:06.744Z,0.00
2019-06-08T00:55:06.734Z,0.00
2019-06-08T00:56:06.775Z,0.00
2019-06-08T00:57:06.701Z,0.00
2019-06-08T00:58:06.707Z,0.00
2019-06-08T00:59:06.680Z,0.00
2019-06-08T01:00:10.955Z,0.00
2019-06-08T01:01:06.664Z,0.00
2019-06-08T01:02:06.684Z,0.00
2019-06-08T01:03:06.651Z,0.00
2019-06-08T01:04:06.629Z,0.00
2019-06-08T01:05:06.615Z,0.00
2019-06-08T01:06:06.604Z,0.00
2019-06-08T01:07:06.596Z,0.00
2019-06-08T01:08:06.730Z,0.00
2019-06-08T01:09:06.572Z,0.00
2019-06-08T01:10:06.563Z,0.00
2019-06-08T01:11:06.555Z,0.00
2019-06-08T01:12:06.541Z,0.00
2019-06-08T01:13:06.545Z,0.00
2019-06-08T01:14:06.547Z,0.00
2019-06-08T01:15:06.724Z,0.00
2019-06-08T01:16:06.525Z,0.00
2019-06-08T01:17:06.490Z,0.00
2019-06-08T01:18:06.494Z,0.00
2019-06-08T01:19:06.469Z,0.00
2019-06-08T01:20:06.483Z,0.00
2019-06-08T01:21:06.447Z,0.00
2019-06-08T01:22:06.438Z,0.00
2019-06-08T01:23:06.437Z,0.00
2019-06-08T01:24:06.412Z,0.00
2019-06-08T01:25:06.404Z,0.00
2019-06-08T01:26:06.418Z,0.00
2019-06-08T01:27:06.388Z,0.00
2019-06-08T01:28:06.381Z,0.00
2019-06-08T01:29:06.363Z,0.00
2019-06-08T01:30:06.351Z,0.00
2019-06-08T01:31:06.338Z,0.00
2019-06-08T01:32:06.365Z,0.00
2019-06-08T01:33:06.326Z,0.00
2019-06-08T01:34:06.306Z,0.00
2019-06-08T01:35:06.294Z,0.00
2019-06-08T01:36:06.286Z,0.00
2019-06-08T01:37:06.274Z,0.00
2019-06-08T01:38:06.317Z,0.00
2019-06-08T01:39:06.261Z,0.00
2019-06-08T01:40:06.243Z,0.00
2019-06-08T01:41:06.231Z,0.00
2019-06-08T01:42:06.218Z,0.00
2019-06-08T01:43:06.219Z,0.00
2019-06-08T01:44:06.228Z,0.00
2019-06-08T01:45:06.187Z,0.00
2019-06-08T01:46:06.176Z,0.00
2019-06-08T01:47:06.166Z,0.00
2019-06-08T01:48:19.611Z,0.00
2019-06-08T01:49:07.147Z,0.00
2019-06-08T01:50:06.183Z,0.00
2019-06-08T01:51:06.124Z,0.00
2019-06-08T01:52:06.119Z,0.00
2019-06-08T01:53:06.121Z,0.00
2019-06-08T01:54:06.090Z,0.00
2019-06-08T01:55:06.079Z,0.00
2019-06-08T01:56:06.094Z,0.00
2019-06-08T01:57:06.061Z,0.00
2019-06-08T01:58:06.072Z,0.00
2019-06-08T01:59:06.036Z,0.00
2019-06-08T02:00:29.106Z,0.00
2019-06-08T02:01:07.013Z,0.00
2019-06-08T02:02:06.046Z,0.00
2019-06-08T02:03:05.994Z,0.00
2019-06-08T02:04:05.995Z,0.00
2019-06-08T02:05:05.975Z,0.00
2019-06-08T02:06:05.967Z,0.00
2019-06-08T02:07:05.989Z,0.00
2019-06-08T02:08:05.988Z,0.00
2019-06-08T02:09:05.955Z,0.00
2019-06-08T02:10:05.917Z,0.00
2019-06-08T02:11:05.918Z,0.00
2019-06-08T02:12:05.907Z,0.00
2019-06-08T02:13:08.574Z,0.00
2019-06-08T02:14:05.913Z,0.00
2019-06-08T02:15:05.894Z,0.00
2019-06-08T02:16:05.852Z,0.00
2019-06-08T02:17:05.915Z,0.00
2019-06-08T02:18:05.835Z,0.00
2019-06-08T02:19:05.830Z,0.00
2019-06-08T02:20:05.812Z,0.00
2019-06-08T02:21:05.853Z,0.00
2019-06-08T02:22:05.785Z,0.00
2019-06-08T02:23:05.779Z,0.00
2019-06-08T02:24:05.779Z,0.00
2019-06-08T02:25:05.754Z,0.00
2019-06-08T02:26:05.745Z,0.00
2019-06-08T02:27:05.770Z,0.00
2019-06-08T02:28:05.732Z,0.00
2019-06-08T02:29:05.731Z,0.00
2019-06-08T02:30:05.700Z,0.00
2019-06-08T02:31:05.699Z,0.00
2019-06-08T02:32:05.732Z,0.00
2019-06-08T02:33:05.717Z,0.00
2019-06-08T02:34:05.672Z,0.00
2019-06-08T02:35:05.647Z,0.00
2019-06-08T02:36:05.638Z,0.00
2019-06-08T02:37:05.625Z,0.00
2019-06-08T02:38:05.622Z,0.00
2019-06-08T02:39:05.635Z,0.00
2019-06-08T02:40:05.594Z,0.00
2019-06-08T02:41:05.584Z,0.00
2019-06-08T02:42:05.571Z,0.00
2019-06-08T02:43:05.559Z,0.00
2019-06-08T02:44:05.568Z,0.00
2019-06-08T02:45:05.580Z,0.00
2019-06-08T02:46:05.530Z,0.00
2019-06-08T02:47:05.518Z,0.00
2019-06-08T02:48:05.504Z,0.00
2019-06-08T02:49:05.524Z,0.00
2019-06-08T02:50:05.499Z,0.00
2019-06-08T02:51:05.505Z,4.00
2019-06-08T02:52:05.462Z,0.00
2019-06-08T02:53:05.449Z,4.00
2019-06-08T02:54:05.441Z,4.00
2019-06-08T02:55:05.441Z,4.00
2019-06-08T02:56:05.431Z,4.00
2019-06-08T02:57:05.479Z,4.00
2019-06-08T02:58:05.395Z,4.00
2019-06-08T02:59:05.386Z,4.00
2019-06-08T03:00:05.390Z,8.00
2019-06-08T03:01:05.373Z,4.00
2019-06-08T03:02:05.351Z,4.00
2019-06-08T03:03:05.378Z,12.00
2019-06-08T03:04:05.340Z,12.00
2019-06-08T03:05:05.340Z,12.00
2019-06-08T03:06:05.312Z,16.00
2019-06-08T03:07:05.301Z,20.00
2019-06-08T03:08:05.288Z,16.00
2019-06-08T03:09:05.308Z,24.00
2019-06-08T03:10:05.281Z,24.00
2019-06-08T03:11:05.254Z,28.00
2019-06-08T03:12:05.242Z,32.00
2019-06-08T03:13:05.235Z,40.00
2019-06-08T03:14:05.221Z,44.00
2019-06-08T03:15:05.249Z,52.00
2019-06-08T03:16:05.199Z,60.00
2019-06-08T03:17:05.192Z,68.00
2019-06-08T03:18:05.181Z,72.00
2019-06-08T03:19:21.165Z,80.00
2019-06-08T03:20:06.171Z,88.00
2019-06-08T03:21:05.186Z,100.00
2019-06-08T03:22:05.142Z,96.00
2019-06-08T03:23:05.128Z,92.00
2019-06-08T03:24:05.109Z,96.00
2019-06-08T03:25:05.114Z,112.00
2019-06-08T03:26:05.094Z,128.00
2019-06-08T03:27:05.106Z,140.00
2019-06-08T03:28:05.070Z,152.00
2019-06-08T03:29:05.056Z,172.00
2019-06-08T03:30:16.507Z,192.00
2019-06-08T03:31:06.038Z,228.00
2019-06-08T03:32:05.024Z,260.00
2019-06-08T03:33:05.053Z,284.00
2019-06-08T03:34:05.003Z,312.00
2019-06-08T03:35:05.012Z,344.00
2019-06-08T03:36:04.984Z,376.00
2019-06-08T03:37:04.969Z,404.00
2019-06-08T03:38:04.957Z,424.00
2019-06-08T03:39:04.992Z,428.00
2019-06-08T03:40:04.948Z,436.00
2019-06-08T03:41:04.925Z,464.00
2019-06-08T03:42:04.913Z,496.00
2019-06-08T03:43:04.911Z,528.00
2019-06-08T03:44:04.889Z,572.00
2019-06-08T03:45:04.934Z,628.00
2019-06-08T03:46:04.867Z,696.00
2019-06-08T03:47:04.856Z,748.00
2019-06-08T03:48:04.846Z,792.00
2019-06-08T03:49:04.836Z,796.00
2019-06-08T03:50:04.823Z,828.00
2019-06-08T03:51:04.865Z,880.00
2019-06-08T03:52:04.801Z,888.00
2019-06-08T03:53:04.791Z,900.00
2019-06-08T03:54:04.780Z,892.00
2019-06-08T03:55:04.769Z,920.00
2019-06-08T03:56:04.767Z,1012.00
2019-06-08T03:57:04.798Z,1116.00
2019-06-08T03:58:04.734Z,1244.00
2019-06-08T03:59:04.729Z,1364.00
2019-06-08T04:00:12.882Z,1460.00
2019-06-08T04:01:05.711Z,1524.00
2019-06-08T04:02:04.690Z,1508.00
2019-06-08T04:03:04.711Z,1548.00
2019-06-08T04:04:04.671Z,1648.00
2019-06-08T04:05:04.661Z,1672.00
2019-06-08T04:06:04.714Z,1664.00
2019-06-08T04:07:04.636Z,1668.00
2019-06-08T04:08:04.624Z,1804.00
2019-06-08T04:09:04.645Z,1972.00
2019-06-08T04:10:04.603Z,2180.00
2019-06-08T04:11:04.590Z,2236.00
2019-06-08T04:12:04.596Z,2152.00
2019-06-08T04:13:04.569Z,2048.00
2019-06-08T04:14:04.558Z,1968.00
2019-06-08T04:15:04.579Z,1964.00
2019-06-08T04:16:04.545Z,2052.00
2019-06-08T04:17:04.529Z,2192.00
2019-06-08T04:18:04.519Z,2376.00
2019-06-08T04:19:04.501Z,2448.00
2019-06-08T04:20:11.093Z,2524.00
2019-06-08T04:21:05.550Z,2536.00
2019-06-08T04:22:04.470Z,2504.00
2019-06-08T04:23:04.462Z,2448.00
2019-06-08T04:24:04.448Z,2488.00
2019-06-08T04:25:04.436Z,2616.00
2019-06-08T04:26:04.437Z,2760.00
2019-06-08T04:27:04.478Z,2772.00
2019-06-08T04:28:04.406Z,2680.00
2019-06-08T04:29:04.390Z,2700.00
2019-06-08T04:30:04.382Z,2840.00
2019-06-08T04:31:04.409Z,2984.00
2019-06-08T04:32:04.361Z,3024.00
2019-06-08T04:33:04.387Z,3184.00
2019-06-08T04:34:04.350Z,3388.00
2019-06-08T04:35:04.324Z,3644.00
2019-06-08T04:36:04.340Z,3776.00
2019-06-08T04:37:04.319Z,3712.00
2019-06-08T04:38:04.295Z,3632.00
2019-06-08T04:39:04.311Z,3464.00
2019-06-08T04:40:04.274Z,3536.00
2019-06-08T04:41:04.272Z,3404.00
2019-06-08T04:42:04.247Z,3340.00
2019-06-08T04:43:04.242Z,3400.00
2019-06-08T04:44:04.227Z,3356.00
2019-06-08T04:45:04.234Z,3204.00
2019-06-08T04:46:04.218Z,3128.00
2019-06-08T04:47:04.195Z,3152.00
2019-06-08T04:48:04.182Z,3332.00
2019-06-08T04:49:04.189Z,3420.00
2019-06-08T04:50:20.917Z,3540.00
2019-06-08T04:51:05.193Z,3588.00
2019-06-08T04:52:04.137Z,3320.00
2019-06-08T04:53:04.126Z,3564.00
2019-06-08T04:54:04.113Z,3344.00
2019-06-08T04:55:04.105Z,3868.00
2019-06-08T04:56:04.104Z,3912.00
2019-06-08T04:57:04.097Z,3988.00
2019-06-08T04:58:04.115Z,3880.00
2019-06-08T04:59:04.060Z,4480.00
2019-06-08T05:00:11.724Z,4768.00
2019-06-08T05:01:05.055Z,4604.00
2019-06-08T05:02:04.025Z,4588.00
2019-06-08T05:03:04.015Z,4560.00
2019-06-08T05:04:04.031Z,4612.00
2019-06-08T05:05:03.994Z,4788.00
2019-06-08T05:06:03.993Z,4700.00
2019-06-08T05:07:03.970Z,5536.00
2019-06-08T05:08:03.989Z,5892.00
2019-06-08T05:09:03.960Z,5036.00
2019-06-08T05:10:03.972Z,6056.00
2019-06-08T05:11:03.947Z,6140.00
2019-06-08T05:12:03.922Z,5608.00
2019-06-08T05:13:03.907Z,3552.00
2019-06-08T05:14:03.898Z,5512.00
2019-06-08T05:15:03.888Z,4428.00
2019-06-08T05:16:03.926Z,5572.00
2019-06-08T05:17:03.869Z,5796.00
2019-06-08T05:18:03.856Z,4968.00
2019-06-08T05:19:03.846Z,4876.00
2019-06-08T05:20:03.866Z,7016.00
2019-06-08T05:21:03.844Z,4812.00
2019-06-08T05:22:03.851Z,5704.00
2019-06-08T05:23:03.801Z,5360.00
2019-06-08T05:24:03.789Z,4840.00
2019-06-08T05:25:03.793Z,5408.00
2019-06-08T05:26:03.782Z,5904.00
2019-06-08T05:27:03.770Z,1220.00
2019-06-08T05:28:03.789Z,7296.00
2019-06-08T05:29:03.736Z,4912.00
2019-06-08T05:30:08.345Z,4812.00
2019-06-08T05:31:04.712Z,5008.00
2019-06-08T05:32:03.714Z,5420.00
2019-06-08T05:33:03.693Z,9172.00
2019-06-08T05:34:03.706Z,7460.00
2019-06-08T05:35:03.670Z,6988.00
2019-06-08T05:36:03.657Z,7440.00
2019-06-08T05:37:03.663Z,8672.00
2019-06-08T05:38:03.635Z,10288.00
2019-06-08T05:39:03.628Z,7716.00
2019-06-08T05:40:03.632Z,8204.00
2019-06-08T05:41:03.602Z,8568.00
2019-06-08T05:42:03.600Z,10984.00
2019-06-08T05:43:03.583Z,11488.00
2019-06-08T05:44:03.568Z,11948.00
2019-06-08T05:45:03.557Z,12480.00
2019-06-08T05:46:03.562Z,4388.00
2019-06-08T05:47:03.548Z,15744.00
2019-06-08T05:48:03.528Z,16384.00
2019-06-08T05:49:03.512Z,16384.00
2019-06-08T05:50:03.505Z,16128.00
2019-06-08T05:51:04.388Z,9436.00
2019-06-08T05:52:03.530Z,7232.00
2019-06-08T05:53:03.471Z,4860.00
2019-06-08T05:54:03.464Z,12320.00
2019-06-08T05:55:03.447Z,7604.00
2019-06-08T05:56:03.435Z,6356.00
2019-06-08T05:57:03.447Z,6692.00
2019-06-08T05:58:03.433Z,5788.00
2019-06-08T05:59:03.415Z,15744.00
2019-06-08T06:00:08.805Z,2820.00
2019-06-08T06:01:04.404Z,19680.00
2019-06-08T06:02:03.420Z,17664.00
2019-06-08T06:03:03.384Z,12408.00
2019-06-08T06:04:03.366Z,11616.00
2019-06-08T06:05:03.352Z,10848.00
2019-06-08T06:06:03.385Z,27872.00
2019-06-08T06:07:03.343Z,0.00
2019-06-08T06:08:04.609Z,41280.00
2019-06-08T06:09:04.298Z,23744.00
2019-06-08T06:10:03.304Z,25920.00
2019-06-08T06:11:03.271Z,24672.00
2019-06-08T06:12:03.297Z,19264.00
2019-06-08T06:13:03.271Z,11148.00
2019-06-08T06:14:03.238Z,7184.00
2019-06-08T06:15:03.255Z,6784.00
2019-06-08T06:16:03.239Z,6812.00
2019-06-08T06:17:03.226Z,6744.00
2019-06-08T06:18:03.251Z,6728.00
2019-06-08T06:19:03.208Z,6616.00
2019-06-08T06:20:03.188Z,6664.00
2019-06-08T06:21:10.939Z,6580.00
2019-06-08T06:22:04.163Z,6572.00
2019-06-08T06:23:03.337Z,6448.00
2019-06-08T06:24:03.138Z,6524.00
2019-06-08T06:25:03.144Z,6588.00
2019-06-08T06:26:03.142Z,6556.00
2019-06-08T06:27:03.099Z,6432.00
2019-06-08T06:28:06.266Z,6500.00
2019-06-08T06:29:03.133Z,6300.00
2019-06-08T06:30:03.218Z,6280.00
2019-06-08T06:31:03.073Z,6288.00
2019-06-08T06:32:03.131Z,6428.00
2019-06-08T06:33:03.094Z,6580.00
2019-06-08T06:34:03.026Z,6576.00
2019-06-08T06:35:03.034Z,4972.00
2019-06-08T06:36:03.031Z,6392.00
2019-06-08T06:37:03.022Z,6536.00
2019-06-08T06:38:03.035Z,6620.00
2019-06-08T06:39:03.017Z,6388.00
2019-06-08T06:40:02.955Z,7108.00
2019-06-08T06:41:02.944Z,6808.00
2019-06-08T06:42:02.949Z,13592.00
2019-06-08T06:43:02.986Z,6096.00
2019-06-08T06:44:02.926Z,26400.00
2019-06-08T06:45:02.913Z,8704.00
2019-06-08T06:46:02.903Z,25632.00
2019-06-08T06:47:02.896Z,30176.00
2019-06-08T06:48:02.913Z,0.00
2019-06-08T06:49:02.856Z,36640.00
2019-06-08T06:50:02.861Z,7796.00
2019-06-08T06:51:02.865Z,14176.00
2019-06-08T06:52:02.886Z,46848.00
2019-06-08T06:53:02.877Z,38080.00
2019-06-08T06:54:02.911Z,21120.00
2019-06-08T06:55:02.831Z,16928.00
2019-06-08T06:56:02.793Z,5504.00
2019-06-08T06:57:02.783Z,16192.00
2019-06-08T06:58:02.877Z,37536.00
2019-06-08T06:59:02.761Z,20128.00
2019-06-08T07:00:02.753Z,11872.00
2019-06-08T07:01:02.744Z,15392.00
2019-06-08T07:02:02.747Z,14912.00
2019-06-08T07:03:02.715Z,39104.00
2019-06-08T07:04:02.702Z,25088.00
2019-06-08T07:05:02.902Z,0.00
2019-06-08T07:06:02.694Z,0.00
2019-06-08T07:07:02.686Z,39104.00
2019-06-08T07:08:02.667Z,7656.00
2019-06-08T07:09:02.650Z,29120.00
2019-06-08T07:10:02.657Z,19168.00
2019-06-08T07:11:02.647Z,35872.00
2019-06-08T07:12:02.650Z,9028.00
2019-06-08T07:13:02.657Z,26240.00
2019-06-08T07:14:02.590Z,11348.00
2019-06-08T07:15:02.585Z,23616.00
2019-06-08T07:16:17.239Z,20288.00
2019-06-08T07:17:03.564Z,16800.00
2019-06-08T07:18:02.551Z,43296.00
2019-06-08T07:19:02.567Z,24992.00
2019-06-08T07:20:02.535Z,30816.00
2019-06-08T07:21:02.545Z,42848.00
2019-06-08T07:22:02.602Z,41728.00
2019-06-08T07:23:02.523Z,32288.00
2019-06-08T07:24:02.488Z,16736.00
2019-06-08T07:25:02.480Z,5856.00
2019-06-08T07:26:02.520Z,7964.00
2019-06-08T07:27:02.466Z,7844.00
2019-06-08T07:28:02.445Z,7464.00
2019-06-08T07:29:02.446Z,7524.00
2019-06-08T07:30:02.598Z,7612.00
2019-06-08T07:31:02.395Z,7504.00
2019-06-08T07:32:02.396Z,7400.00
2019-06-08T07:33:02.378Z,7340.00
2019-06-08T07:34:02.453Z,7356.00
2019-06-08T07:35:02.430Z,7316.00
2019-06-08T07:36:02.367Z,7324.00
2019-06-08T07:37:02.346Z,7228.00
2019-06-08T07:38:02.378Z,7160.00
2019-06-08T07:39:02.336Z,7240.00
2019-06-08T07:40:02.333Z,7188.00
2019-06-08T07:41:02.317Z,7192.00
2019-06-08T07:42:02.275Z,7228.00
2019-06-08T07:43:02.278Z,7120.00
2019-06-08T07:44:02.287Z,7172.00
2019-06-08T07:45:02.254Z,7136.00
2019-06-08T07:46:02.287Z,7172.00
2019-06-08T07:47:02.237Z,7160.00
2019-06-08T07:48:02.213Z,7076.00
2019-06-08T07:49:02.224Z,7108.00
2019-06-08T07:50:04.614Z,7008.00
2019-06-08T07:51:02.179Z,6964.00
2019-06-08T07:52:09.800Z,7020.00
2019-06-08T07:53:03.190Z,7104.00
2019-06-08T07:54:02.549Z,7132.00
2019-06-08T07:55:02.142Z,7204.00
2019-06-08T07:56:02.200Z,7200.00
2019-06-08T07:57:02.130Z,7076.00
2019-06-08T07:58:02.106Z,7068.00
2019-06-08T07:59:02.114Z,7020.00
2019-06-08T08:00:08.798Z,7068.00
2019-06-08T08:01:07.917Z,6996.00
2019-06-08T08:02:03.065Z,6976.00
2019-06-08T08:03:02.068Z,7084.00
2019-06-08T08:04:02.065Z,7068.00
2019-06-08T08:05:02.092Z,7104.00
2019-06-08T08:06:02.027Z,7160.00
2019-06-08T08:07:02.008Z,7124.00
2019-06-08T08:08:02.034Z,7052.00
2019-06-08T08:09:02.083Z,7144.00
2019-06-08T08:10:02.096Z,7276.00
2019-06-08T08:11:01.958Z,7220.00
2019-06-08T08:12:01.952Z,7264.00
2019-06-08T08:13:01.987Z,7268.00
2019-06-08T08:14:01.956Z,7420.00
2019-06-08T08:15:01.944Z,7372.00
2019-06-08T08:16:01.940Z,7408.00
2019-06-08T08:17:01.906Z,7444.00
2019-06-08T08:18:01.887Z,7592.00
2019-06-08T08:19:01.895Z,7560.00
2019-06-08T08:20:01.915Z,7544.00
2019-06-08T08:21:09.238Z,7484.00
2019-06-08T08:22:18.559Z,7380.00
2019-06-08T08:23:05.946Z,7436.00
2019-06-08T08:24:02.835Z,7544.00
2019-06-08T08:25:04.728Z,7504.00
2019-06-08T08:26:02.027Z,7676.00
2019-06-08T08:27:03.693Z,7728.00
2019-06-08T08:28:01.824Z,7588.00
2019-06-08T08:29:03.240Z,7892.00
2019-06-08T08:30:02.283Z,7824.00
2019-06-08T08:31:01.997Z,8048.00
2019-06-08T08:32:02.110Z,8232.00
2019-06-08T08:33:03.266Z,8072.00
2019-06-08T08:34:05.602Z,8028.00
2019-06-08T08:35:02.983Z,8092.00
2019-06-08T08:36:02.049Z,7876.00
2019-06-08T08:37:05.514Z,8084.00
2019-06-08T08:38:04.550Z,8508.00
2019-06-08T08:39:02.563Z,8632.00
2019-06-08T08:40:01.709Z,8892.00
2019-06-08T08:41:07.200Z,9332.00
2019-06-08T08:42:05.001Z,9252.00
2019-06-08T08:43:01.761Z,42208.00
2019-06-08T08:44:04.285Z,58016.00
2019-06-08T08:45:05.083Z,1920.00
2019-06-08T08:46:02.017Z,43008.00
2019-06-08T08:47:02.870Z,64320.00
2019-06-08T08:48:21.063Z,58240.00
2019-06-08T08:49:09.377Z,6880.00
2019-06-08T08:50:02.552Z,48768.00
2019-06-08T08:51:03.671Z,43904.00
2019-06-08T08:52:01.876Z,39168.00
2019-06-08T08:53:02.457Z,25792.00
2019-06-08T08:54:04.891Z,24896.00
2019-06-08T08:55:02.207Z,16736.00
2019-06-08T08:56:02.479Z,19328.00
2019-06-08T08:57:04.757Z,22240.00
2019-06-08T08:58:02.185Z,20448.00
2019-06-08T08:59:02.756Z,12392.00
2019-06-08T09:00:04.782Z,13340.00
2019-06-08T09:01:03.642Z,20288.00
2019-06-08T09:02:02.914Z,32992.00
2019-06-08T09:04:04.956Z,39168.00
2019-06-08T09:05:03.339Z,40576.00
2019-06-08T09:06:03.677Z,36480.00
2019-06-08T09:07:05.519Z,31712.00
2019-06-08T09:08:03.739Z,27072.00
2019-06-08T09:09:02.452Z,26144.00
2019-06-08T09:10:03.527Z,18944.00
2019-06-08T09:11:03.590Z,21536.00
2019-06-08T09:12:04.283Z,28544.00
2019-06-08T09:13:04.436Z,36992.00
2019-06-08T09:14:05.175Z,48640.00
2019-06-08T09:15:03.896Z,63968.00
2019-06-08T09:16:03.883Z,69760.00
2019-06-08T09:17:02.192Z,42208.00
2019-06-08T09:18:03.710Z,24000.00
2019-06-08T09:19:04.256Z,56928.00
2019-06-08T09:20:03.685Z,77600.00
2019-06-08T09:21:02.859Z,78496.00
2019-06-08T09:22:03.597Z,90080.00
2019-06-08T09:23:11.625Z,83168.00
2019-06-08T09:24:03.970Z,80992.00
2019-06-08T09:25:04.247Z,88672.00
2019-06-08T09:26:07.662Z,82528.00
2019-06-08T09:27:04.006Z,62080.00
2019-06-08T09:28:03.343Z,86688.00
2019-06-08T09:29:04.308Z,83232.00
2019-06-08T09:30:04.404Z,88512.00
2019-06-08T09:31:02.787Z,74144.00
2019-06-08T09:32:03.113Z,30688.00
2019-06-08T09:33:02.922Z,40160.00
2019-06-08T09:34:10.548Z,83360.00
2019-06-08T09:35:04.599Z,88416.00
2019-06-08T09:36:03.001Z,88064.00
2019-06-08T09:37:02.835Z,87232.00
2019-06-08T09:38:03.741Z,86304.00
2019-06-08T09:39:03.107Z,1472.00
2019-06-08T09:40:02.607Z,88672.00
2019-06-08T09:41:03.502Z,16512.00
2019-06-08T09:42:03.105Z,80672.00
2019-06-08T09:43:07.388Z,55776.00
2019-06-08T09:44:04.449Z,41408.00
2019-06-08T09:45:04.272Z,30592.00
2019-06-08T09:46:03.001Z,19584.00
2019-06-08T09:47:08.705Z,48480.00
2019-06-08T09:48:04.353Z,41344.00
2019-06-08T09:49:07.693Z,57760.00
2019-06-08T09:50:04.480Z,26016.00
2019-06-08T09:51:04.119Z,56864.00
2019-06-08T09:52:02.877Z,92672.00
2019-06-08T09:53:18.311Z,33664.00
2019-06-08T09:54:04.748Z,59296.00
2019-06-08T09:55:03.720Z,28576.00
2019-06-08T09:56:05.320Z,21824.00
2019-06-08T09:57:03.873Z,45536.00
2019-06-08T09:58:05.092Z,72864.00
2019-06-08T09:59:04.705Z,90464.00
2019-06-08T10:00:08.353Z,92096.00
2019-06-08T10:01:03.799Z,71296.00
2019-06-08T10:02:07.429Z,83104.00
2019-06-08T10:03:04.269Z,48192.00
2019-06-08T10:04:02.441Z,49664.00
2019-06-08T10:05:03.661Z,87968.00
2019-06-08T10:06:05.674Z,94912.00
2019-06-08T10:07:02.667Z,91008.00
2019-06-08T10:08:02.369Z,49120.00
2019-06-08T10:09:00.854Z,14260.00
2019-06-08T10:10:02.717Z,14000.00
2019-06-08T10:11:04.071Z,15168.00
2019-06-08T10:12:03.408Z,18240.00
2019-06-08T10:13:03.527Z,18208.00
2019-06-08T10:14:04.736Z,93920.00
2019-06-08T10:15:00.867Z,95424.00
2019-06-08T10:16:03.710Z,94752.00
2019-06-08T10:17:03.588Z,134944.00
2019-06-08T10:18:00.990Z,92512.00
2019-06-08T10:19:03.911Z,97088.00
2019-06-08T10:20:03.373Z,93088.00
2019-06-08T10:21:02.830Z,91584.00
2019-06-08T10:22:00.864Z,91200.00
2019-06-08T10:23:03.294Z,89440.00
2019-06-08T10:24:02.707Z,93088.00
2019-06-08T10:25:03.982Z,94240.00
2019-06-08T10:26:03.450Z,95808.00
2019-06-08T10:27:01.382Z,93760.00
2019-06-08T10:28:07.879Z,95328.00
2019-06-08T10:29:04.101Z,96896.00
2019-06-08T10:30:03.144Z,97440.00
2019-06-08T10:31:03.013Z,94304.00
2019-06-08T10:32:01.550Z,95328.00
2019-06-08T10:33:02.145Z,93664.00
2019-06-08T10:34:03.365Z,94944.00
2019-06-08T10:35:03.647Z,95552.00
2019-06-08T10:36:02.304Z,99360.00
2019-06-08T10:37:04.966Z,97696.00
2019-06-08T10:38:05.068Z,96864.00
2019-06-08T10:39:04.740Z,98912.00
2019-06-08T10:40:03.723Z,100800.00
2019-06-08T10:41:06.927Z,100032.00
2019-06-08T10:42:03.573Z,99808.00
2019-06-08T10:43:01.472Z,101440.00
2019-06-08T10:44:01.320Z,90752.00
2019-06-08T10:45:07.613Z,100384.00
2019-06-08T10:46:08.577Z,99328.00
2019-06-08T10:47:03.002Z,103648.00
2019-06-08T10:48:01.525Z,101440.00
2019-06-08T10:49:01.803Z,100896.00
2019-06-08T10:50:06.385Z,103712.00
2019-06-08T10:51:03.774Z,100192.00
2019-06-08T10:52:03.011Z,98880.00
2019-06-08T10:53:02.830Z,97152.00
2019-06-08T10:54:00.251Z,94048.00
2019-06-08T10:55:03.208Z,99328.00
2019-06-08T10:56:01.733Z,100768.00
2019-06-08T10:57:02.571Z,101856.00
2019-06-08T10:58:02.392Z,100864.00
2019-06-08T10:59:02.329Z,102528.00
2019-06-08T11:00:02.963Z,98848.00
2019-06-08T11:01:04.193Z,97504.00
2019-06-08T11:02:02.655Z,107648.00
2019-06-08T11:03:03.297Z,95200.00
2019-06-08T11:04:01.630Z,98240.00
2019-06-08T11:05:04.722Z,95904.00
2019-06-08T11:06:02.930Z,93664.00
2019-06-08T11:07:05.605Z,99744.00
2019-06-08T11:08:02.535Z,105536.00
2019-06-08T11:09:03.714Z,105504.00
2019-06-08T11:10:02.111Z,104320.00
2019-06-08T11:11:01.530Z,102528.00
2019-06-08T11:12:01.534Z,100960.00
2019-06-08T11:13:05.153Z,100448.00
2019-06-08T11:14:03.520Z,102560.00
2019-06-08T11:15:02.801Z,103968.00
2019-06-08T11:16:01.003Z,103968.00
2019-06-08T11:17:00.633Z,104544.00
2019-06-08T11:18:02.294Z,104736.00
2019-06-08T11:19:01.029Z,107104.00
2019-06-08T11:20:02.254Z,105952.00
2019-06-08T11:21:01.936Z,104416.00
2019-06-08T11:22:02.673Z,102624.00
2019-06-08T11:23:01.791Z,103936.00
2019-06-08T11:24:07.519Z,102176.00
2019-06-08T11:25:02.497Z,104960.00
2019-06-08T11:26:04.603Z,101984.00
2019-06-08T11:27:01.283Z,102784.00
2019-06-08T11:28:01.723Z,103200.00
2019-06-08T11:29:01.573Z,103648.00
2019-06-08T11:29:59.882Z,103264.00
2019-06-08T11:30:59.872Z,97056.00
2019-06-08T11:32:00.092Z,102752.00
2019-06-08T11:32:59.986Z,107072.00
2019-06-08T11:34:00.301Z,108064.00
2019-06-08T11:34:59.947Z,109728.00
2019-06-08T11:36:02.922Z,106240.00
2019-06-08T11:37:01.927Z,108672.00
2019-06-08T11:38:00.223Z,109280.00
2019-06-08T11:39:00.477Z,108896.00
2019-06-08T11:39:59.887Z,105376.00
2019-06-08T11:41:00.940Z,105376.00
2019-06-08T11:42:00.283Z,104256.00
2019-06-08T11:43:00.484Z,106880.00
2019-06-08T11:44:01.348Z,111104.00
2019-06-08T11:45:00.266Z,110880.00
2019-06-08T11:46:00.537Z,110848.00
2019-06-08T11:47:00.417Z,111328.00
2019-06-08T11:48:00.506Z,110784.00
2019-06-08T11:49:01.163Z,111456.00
2019-06-08T11:50:00.540Z,104160.00
2019-06-08T11:51:00.580Z,104512.00
2019-06-08T11:52:00.476Z,107648.00
2019-06-08T11:53:00.629Z,103808.00
2019-06-08T11:54:00.902Z,106496.00
2019-06-08T11:55:00.667Z,106848.00
2019-06-08T11:56:01.194Z,107552.00
2019-06-08T11:57:00.764Z,108896.00
2019-06-08T11:58:00.846Z,107616.00
2019-06-08T11:58:59.604Z,104256.00
2019-06-08T11:59:59.601Z,105472.00
2019-06-08T12:01:02.894Z,105888.00
2019-06-08T12:01:59.584Z,106368.00
2019-06-08T12:02:59.563Z,108576.00
2019-06-08T12:03:59.556Z,110592.00
2019-06-08T12:04:59.548Z,107904.00
2019-06-08T12:05:59.539Z,108928.00
2019-06-08T12:06:59.535Z,111840.00
2019-06-08T12:07:59.514Z,112000.00
2019-06-08T12:09:00.308Z,110432.00
2019-06-08T12:09:59.498Z,107840.00
2019-06-08T12:11:02.037Z,101824.00
2019-06-08T12:11:59.490Z,103744.00
2019-06-08T12:12:59.469Z,102400.00
2019-06-08T12:13:59.461Z,105120.00
2019-06-08T12:14:59.450Z,108256.00